Map

Track Data

SID SEASON NUMBER BASIN SUBBASIN NAME ISO_TIME NATURE LAT LON WMO_WIND WMO_PRES WMO_AGENCY TRACK_TYPE DIST2LAND LANDFALL IFLAG USA_AGENCY USA_ATCF_ID USA_LAT USA_LON USA_RECORD USA_STATUS USA_WIND USA_PRES USA_SSHS USA_R34_NE USA_R34_SE USA_R34_SW USA_R34_NW USA_R50_NE USA_R50_SE USA_R50_SW USA_R50_NW USA_R64_NE USA_R64_SE USA_R64_SW USA_R64_NW USA_POCI USA_ROCI USA_RMW USA_EYE TOKYO_LAT TOKYO_LON TOKYO_GRADE TOKYO_WIND TOKYO_PRES TOKYO_R50_DIR TOKYO_R50_LONG TOKYO_R50_SHORT TOKYO_R30_DIR TOKYO_R30_LONG TOKYO_R30_SHORT TOKYO_LAND CMA_LAT CMA_LON CMA_CAT CMA_WIND CMA_PRES HKO_LAT HKO_LON HKO_CAT HKO_WIND HKO_PRES NEWDELHI_LAT NEWDELHI_LON NEWDELHI_GRADE NEWDELHI_WIND NEWDELHI_PRES NEWDELHI_CI NEWDELHI_DP NEWDELHI_POCI REUNION_LAT REUNION_LON REUNION_TYPE REUNION_WIND REUNION_PRES REUNION_TNUM REUNION_CI REUNION_RMW REUNION_R34_NE REUNION_R34_SE REUNION_R34_SW REUNION_R34_NW REUNION_R50_NE REUNION_R50_SE REUNION_R50_SW REUNION_R50_NW REUNION_R64_NE REUNION_R64_SE REUNION_R64_SW REUNION_R64_NW BOM_LAT BOM_LON BOM_TYPE BOM_WIND BOM_PRES BOM_TNUM BOM_CI BOM_RMW BOM_R34_NE BOM_R34_SE BOM_R34_SW BOM_R34_NW BOM_R50_NE BOM_R50_SE BOM_R50_SW BOM_R50_NW BOM_R64_NE BOM_R64_SE BOM_R64_SW BOM_R64_NW BOM_ROCI BOM_POCI BOM_EYE BOM_POS_METHOD BOM_PRES_METHOD NADI_LAT NADI_LON NADI_CAT NADI_WIND NADI_PRES WELLINGTON_LAT WELLINGTON_LON WELLINGTON_WIND WELLINGTON_PRES DS824_LAT DS824_LON DS824_STAGE DS824_WIND DS824_PRES TD9636_LAT TD9636_LON TD9636_STAGE TD9636_WIND TD9636_PRES TD9635_LAT TD9635_LON TD9635_WIND TD9635_PRES TD9635_ROCI NEUMANN_LAT NEUMANN_LON NEUMANN_CLASS NEUMANN_WIND NEUMANN_PRES MLC_LAT MLC_LON MLC_CLASS MLC_WIND MLC_PRES USA_GUST BOM_GUST BOM_GUST_PER REUNION_GUST REUNION_GUST_PER USA_SEAHGT USA_SEARAD_NE USA_SEARAD_SE USA_SEARAD_SW USA_SEARAD_NW STORM_SPEED STORM_DIR
1933274N15279 1933 62 NA CS NOT_NAMED 1933-10-01 06:00:00 TS 15.3000 -81.4000 35 hurdat_atl main 185 177 O_____________ hurdat_atl AL171933 15.3000 -81.4000 TS 35 0 2 333
1933274N15279 1933 62 NA CS NOT_NAMED 1933-10-01 09:00:00 TS 15.4000 -81.4600 main 177 177 P_____________ AL171933 15.4000 -81.4600 TS 35 0 2 333
1933274N15279 1933 62 NA CS NOT_NAMED 1933-10-01 12:00:00 TS 15.5000 -81.5000 35 hurdat_atl main 180 180 O_____________ hurdat_atl AL171933 15.5000 -81.5000 TS 35 0 2 347
1933274N15279 1933 62 NA CS NOT_NAMED 1933-10-01 15:00:00 TS 15.6000 -81.5075 main 184 184 P_____________ AL171933 15.6000 -81.5075 TS 35 0 2 8
1933274N15279 1933 62 NA CS NOT_NAMED 1933-10-01 18:00:00 TS 15.7000 -81.5000 35 hurdat_atl main 188 188 O_____________ hurdat_atl AL171933 15.7000 -81.5000 TS 35 0 2 7
1933274N15279 1933 62 NA CS NOT_NAMED 1933-10-01 21:00:00 TS 15.7925 -81.5000 main 193 193 P_____________ AL171933 15.7925 -81.5000 TS 37 0 2 8
1933274N15279 1933 62 NA CS NOT_NAMED 1933-10-02 00:00:00 TS 15.9000 -81.5000 40 hurdat_atl main 198 198 O_____________ hurdat_atl AL171933 15.9000 -81.5000 TS 40 0 2 6
1933274N15279 1933 62 NA CS NOT_NAMED 1933-10-02 03:00:00 TS 16.0350 -81.5000 main 204 204 P_____________ AL171933 16.0350 -81.5000 TS 42 0 3 0
1933274N15279 1933 62 NA CS NOT_NAMED 1933-10-02 06:00:00 TS 16.2000 -81.5000 45 hurdat_atl main 217 217 O_____________ hurdat_atl AL171933 16.2000 -81.5000 TS 45 0 3 4
1933274N15279 1933 62 NA CS NOT_NAMED 1933-10-02 09:00:00 TS 16.3700 -81.4925 main 232 232 P_____________ AL171933 16.3700 -81.4925 TS 47 0 4 0
1933274N15279 1933 62 NA CS NOT_NAMED 1933-10-02 12:00:00 TS 16.6000 -81.5000 50 hurdat_atl main 247 247 O_____________ hurdat_atl AL171933 16.6000 -81.5000 TS 50 0 6 356
1933274N15279 1933 62 NA CS NOT_NAMED 1933-10-02 15:00:00 TS 16.9200 -81.5425 main 270 270 P_____________ AL171933 16.9200 -81.5425 TS 52 0 7 352
1933274N15279 1933 62 NA CS NOT_NAMED 1933-10-02 18:00:00 TS 17.3000 -81.6000 55 hurdat_atl main 295 295 O_____________ hurdat_atl AL171933 17.3000 -81.6000 TS 55 0 8 352
1933274N15279 1933 62 NA CS NOT_NAMED 1933-10-02 21:00:00 TS 17.6925 -81.6575 main 324 324 P_____________ AL171933 17.6925 -81.6575 TS 60 0 8 353
1933274N15279 1933 62 NA CS NOT_NAMED 1933-10-03 00:00:00 TS 18.1000 -81.7000 65 hurdat_atl main 348 344 O_____________ hurdat_atl AL171933 18.1000 -81.7000 HU 65 1 8 357
1933274N15279 1933 62 NA CS NOT_NAMED 1933-10-03 03:00:00 TS 18.5000 -81.7076 main 344 302 P_____________ AL171933 18.5000 -81.7076 HU 67 1 8 1
1933274N15279 1933 62 NA CS NOT_NAMED 1933-10-03 06:00:00 TS 18.9000 -81.7000 70 hurdat_atl main 302 261 O_____________ hurdat_atl AL171933 18.9000 -81.7000 HU 70 1 8 1
1933274N15279 1933 62 NA CS NOT_NAMED 1933-10-03 09:00:00 TS 19.3000 -81.6926 main 261 221 P_____________ AL171933 19.3000 -81.6926 HU 72 1 8 1
1933274N15279 1933 62 NA CS NOT_NAMED 1933-10-03 12:00:00 TS 19.7000 -81.7000 75 hurdat_atl main 221 184 O_____________ hurdat_atl AL171933 19.7000 -81.7000 HU 75 1 8 357
1933274N15279 1933 62 NA CS NOT_NAMED 1933-10-03 15:00:00 TS 20.1000 -81.7425 main 184 142 P_____________ AL171933 20.1000 -81.7425 HU 77 1 8 353
1933274N15279 1933 62 NA CS NOT_NAMED 1933-10-03 18:00:00 TS 20.5000 -81.8000 80 hurdat_atl main 142 106 O_____________ hurdat_atl AL171933 20.5000 -81.8000 HU 80 1 8 353
1933274N15279 1933 62 NA CS NOT_NAMED 1933-10-03 21:00:00 TS 20.9075 -81.8500 main 99 70 P_____________ AL171933 20.9075 -81.8500 HU 82 1 8 353
1933274N15279 1933 62 NA CS NOT_NAMED 1933-10-04 00:00:00 TS 21.3000 -81.9000 85 hurdat_atl main 70 62 O_____________ hurdat_atl AL171933 21.3000 -81.9000 HU 85 2 8 353
1933274N15279 1933 62 NA CS NOT_NAMED 1933-10-04 03:00:00 TS 21.6575 -81.9500 main 52 30 P_____________ AL171933 21.6575 -81.9500 HU 87 2 7 352
1933274N15279 1933 62 NA CS NOT_NAMED 1933-10-04 06:00:00 TS 22.0000 -82.0000 90 hurdat_atl main 30 0 O_____________ hurdat_atl AL171933 22.0000 -82.0000 HU 90 2 7 353
1933274N15279 1933 62 NA CS NOT_NAMED 1933-10-04 09:00:00 TS 22.3575 -82.0426 main 0 0 P_____________ AL171933 22.3575 -82.0426 HU 90 2 7 353
1933274N15279 1933 62 NA CS NOT_NAMED 1933-10-04 12:00:00 TS 22.7000 -82.1000 90 hurdat_atl main 0 0 O_____________ hurdat_atl AL171933 22.7000 -82.1000 HU 90 2 7 345
1933274N15279 1933 62 NA NA NOT_NAMED 1933-10-04 15:00:00 TS 23.0225 -82.2298 main 0 0 P_____________ AL171933 23.0225 -82.2298 HU 87 2 6 343
1933274N15279 1933 62 NA NA NOT_NAMED 1933-10-04 18:00:00 TS 23.3000 -82.3000 85 976 hurdat_atl main 22 22 O_____________ hurdat_atl AL171933 23.3000 -82.3000 HU 85 976 2 5 0
1933274N15279 1933 62 NA NA NOT_NAMED 1933-10-04 21:00:00 TS 23.5072 -82.2398 main 44 44 P_____________ AL171933 23.5072 -82.2398 HU 87 2 5 34
1933274N15279 1933 62 NA NA NOT_NAMED 1933-10-05 00:00:00 TS 23.7000 -82.0000 90 hurdat_atl main 67 67 O_____________ hurdat_atl AL171933 23.7000 -82.0000 HU 90 2 7 55
1933274N15279 1933 62 NA NA NOT_NAMED 1933-10-05 03:00:00 TS 23.9350 -81.5749 main 89 89 P_____________ AL171933 23.9350 -81.5749 HU 92 2 10 61
1933274N15279 1933 62 NA NA NOT_NAMED 1933-10-05 06:00:00 TS 24.2000 -81.0000 95 hurdat_atl main 101 78 O_____________ hurdat_atl AL171933 24.2000 -81.0000 HU 95 2 12 64
1933274N15279 1933 62 NA NA NOT_NAMED 1933-10-05 09:00:00 TS 24.4547 -80.3940 main 67 59 P_____________ AL171933 24.4547 -80.3940 HU 97 3 13 63
1933274N15279 1933 62 NA NA NOT_NAMED 1933-10-05 12:00:00 TS 24.8000 -79.7000 100 hurdat_atl main 78 78 O_____________ hurdat_atl AL171933 24.8000 -79.7000 HU 100 3 16 57
1933274N15279 1933 62 NA NA NOT_NAMED 1933-10-05 15:00:00 TS 25.2972 -78.9371 main 82 67 P_____________ AL171933 25.2972 -78.9371 HU 102 3 18 53
1933274N15279 1933 62 NA NA NOT_NAMED 1933-10-05 18:00:00 TS 25.9000 -78.1000 105 hurdat_atl main 89 89 O_____________ hurdat_atl AL171933 25.9000 -78.1000 HU 105 3 20 52
1933274N15279 1933 62 NA NA NOT_NAMED 1933-10-05 21:00:00 TS 26.5349 -77.2072 main 175 175 P_____________ AL171933 26.5349 -77.2072 HU 107 3 21 51
1933274N15279 1933 62 NA NA NOT_NAMED 1933-10-06 00:00:00 TS 27.2000 -76.3000 110 hurdat_atl main 289 289 O_____________ hurdat_atl AL171933 27.2000 -76.3000 HU 110 3 21 50
1933274N15279 1933 62 NA NA NOT_NAMED 1933-10-06 03:00:00 TS 27.8496 -75.4267 main 397 397 P_____________ AL171933 27.8496 -75.4267 HU 110 3 20 49
1933274N15279 1933 62 NA NA NOT_NAMED 1933-10-06 06:00:00 TS 28.5000 -74.6000 110 hurdat_atl main 507 507 O_____________ hurdat_atl AL171933 28.5000 -74.6000 HU 110 3 19 47
1933274N15279 1933 62 NA NA NOT_NAMED 1933-10-06 09:00:00 TS 29.1188 -73.8624 main 603 603 P_____________ AL171933 29.1188 -73.8624 HU 110 3 18 45
1933274N15279 1933 62 NA NA NOT_NAMED 1933-10-06 12:00:00 TS 29.8000 -73.1000 110 hurdat_atl main 632 611 O_____________ hurdat_atl AL171933 29.8000 -73.1000 HU 110 3 21 45
1933274N15279 1933 62 NA NA NOT_NAMED 1933-10-06 15:00:00 TS 30.5902 -72.1716 main 608 604 P_____________ AL171933 30.5902 -72.1716 HU 107 3 24 44
1933274N15279 1933 62 NA NA NOT_NAMED 1933-10-06 18:00:00 TS 31.5000 -71.2000 105 hurdat_atl main 606 602 O_____________ hurdat_atl AL171933 31.5000 -71.2000 HU 105 3 25 40
1933274N15279 1933 62 NA NA NOT_NAMED 1933-10-06 21:00:00 TS 32.5348 -70.2626 main 602 596 P_____________ AL171933 32.5348 -70.2626 HU 100 3 26 36
1933274N15279 1933 62 NA NA NOT_NAMED 1933-10-07 00:00:00 TS 33.6000 -69.4000 95 hurdat_atl main 607 603 O_____________ hurdat_atl AL171933 33.6000 -69.4000 HU 95 2 24 34
1933274N15279 1933 62 NA NA NOT_NAMED 1933-10-07 03:00:00 TS 34.5644 -68.6381 main 639 636 P_____________ AL171933 34.5644 -68.6381 HU 90 2 22 31
1933274N15279 1933 62 NA NA NOT_NAMED 1933-10-07 06:00:00 TS 35.5000 -68.0000 85 hurdat_atl main 676 627 O_____________ hurdat_atl AL171933 35.5000 -68.0000 HU 85 2 21 27
1933274N15279 1933 62 NA NA NOT_NAMED 1933-10-07 09:00:00 TS 36.4494 -67.4605 main 627 552 P_____________ AL171933 36.4494 -67.4605 HU 82 1 21 23
1933274N15279 1933 62 NA NA NOT_NAMED 1933-10-07 12:00:00 TS 37.4000 -67.0000 80 971 hurdat_atl main 542 475 O_____________ hurdat_atl AL171933 37.4000 -67.0000 HU 80 971 1 20 21
1933274N15279 1933 62 NA NA NOT_NAMED 1933-10-07 15:00:00 TS 38.3497 -66.5410 main 481 430 P_____________ AL171933 38.3497 -66.5410 HU 80 1 20 20
1933274N15279 1933 62 NA NA NOT_NAMED 1933-10-07 18:00:00 TS 39.3000 -66.1000 80 hurdat_atl main 423 367 O_____________ hurdat_atl AL171933 39.3000 -66.1000 HU 80 1 20 20
1933274N15279 1933 62 NA NA NOT_NAMED 1933-10-07 21:00:00 TS 40.2648 -65.6491 main 356 267 P_____________ AL171933 40.2648 -65.6491 HU 80 1 20 20
1933274N15279 1933 62 NA NA NOT_NAMED 1933-10-08 00:00:00 ET 41.2000 -65.2000 80 hurdat_atl main 255 160 O_____________ hurdat_atl AL171933 41.2000 -65.2000 EX 80 -4 20 20
1933274N15279 1933 62 NA NA NOT_NAMED 1933-10-08 03:00:00 ET 42.1097 -64.7568 main 160 104 P_____________ AL171933 42.1097 -64.7568 EX 77 -4 18 21
1933274N15279 1933 62 NA NA NOT_NAMED 1933-10-08 06:00:00 ET 42.9000 -64.3000 75 hurdat_atl main 104 78 O_____________ hurdat_atl AL171933 42.9000 -64.3000 EX 75 -4 16 26
1933274N15279 1933 62 NA NA NOT_NAMED 1933-10-08 09:00:00 ET 43.5396 -63.8217 main 86 47 P_____________ AL171933 43.5396 -63.8217 EX 72 -4 13 33
1933274N15279 1933 62 NA NA NOT_NAMED 1933-10-08 12:00:00 ET 44.0000 -63.3000 70 hurdat_atl main 50 44 O_____________ hurdat_atl AL171933 44.0000 -63.3000 EX 70 -4 11 43
1933274N15279 1933 62 NA NA NOT_NAMED 1933-10-08 15:00:00 ET 44.3310 -62.7819 main 44 34 P_____________ AL171933 44.3310 -62.7819 EX 67 -4 10 60
1933274N15279 1933 62 NA NA NOT_NAMED 1933-10-08 18:00:00 ET 44.5000 -62.1000 65 hurdat_atl main 45 45 O_____________ hurdat_atl AL171933 44.5000 -62.1000 EX 65 -4 11 77
1933274N15279 1933 62 NA NA NOT_NAMED 1933-10-08 21:00:00 ET 44.5684 -61.2993 main 60 60 P_____________ AL171933 44.5684 -61.2993 EX 60 -4 15 90
1933274N15279 1933 62 NA NA NOT_NAMED 1933-10-09 00:00:00 ET 44.5000 -60.0000 55 hurdat_atl main 116 116 O_____________ hurdat_atl AL171933 44.5000 -60.0000 EX 55 -4 24 96
1933274N15279 1933 62 NA NA NOT_NAMED 1933-10-09 03:00:00 ET 44.3032 -57.9606 main 234 234 P_____________ AL171933 44.3032 -57.9606 EX 50 -4 33 99
1933274N15279 1933 62 NA NA NOT_NAMED 1933-10-09 06:00:00 ET 44.0000 -55.5000 45 hurdat_atl main 311 O_____________ hurdat_atl AL171933 44.0000 -55.5000 EX 45 -4 36 100

About IBTrACS Database

This database is a web-friendly format of International Best Track Archive for Climate Stewardship (IBTrACS), a global best track data archive curated by NOAA dating back to 1842.

Updated: 2021-10-21